createdAt,value
2023-02-15T00:00:28.284Z,25.89999962
2023-02-15T00:01:28.746Z,22.10000038
2023-02-15T00:02:29.254Z,24.20000076
2023-02-15T00:03:29.747Z,23.89999962
2023-02-15T00:04:30.160Z,28.39999962
2023-02-15T00:05:30.661Z,24.5
2023-02-15T00:06:31.086Z,26.79999924
2023-02-15T00:07:32.342Z,26.20000076
2023-02-15T00:08:32.917Z,26.89999962
2023-02-15T00:09:33.410Z,25.79999924
2023-02-15T00:10:34.512Z,27
2023-02-15T00:11:35.055Z,24.60000038
2023-02-15T00:12:35.554Z,23.10000038
2023-02-15T00:13:36.166Z,23.89999962
2023-02-15T00:14:36.690Z,23.60000038
2023-02-15T00:15:37.278Z,24.70000076
2023-02-15T00:16:37.875Z,24
2023-02-15T00:17:39.040Z,26.20000076
2023-02-15T00:18:40.265Z,25.20000076
2023-02-15T00:19:41.250Z,25.89999962
2023-02-15T00:20:41.733Z,23.79999924
2023-02-15T00:21:42.177Z,23.60000038
2023-02-15T00:22:43.315Z,24.39999962
2023-02-15T00:23:43.940Z,26.5
2023-02-15T00:24:44.411Z,27.5
2023-02-15T00:25:44.979Z,25.20000076
2023-02-15T00:26:45.601Z,23.79999924
2023-02-15T00:27:46.791Z,24.20000076
2023-02-15T00:28:47.283Z,25.60000038
2023-02-15T00:29:47.832Z,23.79999924
2023-02-15T00:30:48.724Z,24
2023-02-15T00:31:49.276Z,23.5
2023-02-15T00:32:49.636Z,23
2023-02-15T00:33:50.129Z,24.79999924
2023-02-15T00:34:50.630Z,22.70000076
2023-02-15T00:35:51.116Z,22.5
2023-02-15T00:36:51.597Z,25.70000076
2023-02-15T00:37:52.774Z,22.60000038
2023-02-15T00:38:53.299Z,25.79999924
2023-02-15T00:39:53.978Z,20.89999962
2023-02-15T00:40:54.517Z,24.10000038
2023-02-15T00:41:54.948Z,22.60000038
2023-02-15T00:42:55.485Z,25
2023-02-15T00:44:27.270Z,23.79999924
2023-02-15T00:45:27.833Z,24.20000076
2023-02-15T00:46:28.372Z,22.5
2023-02-15T00:47:28.846Z,24.79999924
2023-02-15T00:48:30.006Z,23.39999962
2023-02-15T00:49:30.398Z,24.89999962
2023-02-15T00:50:30.912Z,41.40000153
2023-02-15T00:51:31.486Z,28.29999924
2023-02-15T00:52:32.036Z,25.39999962
2023-02-15T00:53:32.585Z,24.39999962
2023-02-15T00:54:33.011Z,23
2023-02-15T00:55:33.534Z,25.10000038
2023-02-15T00:56:34.044Z,23
2023-02-15T00:57:35.379Z,24.79999924
2023-02-15T00:58:36.763Z,24.10000038
2023-02-15T00:59:37.263Z,23.70000076
2023-02-15T01:00:37.726Z,22.79999924
2023-02-15T01:01:38.198Z,24.70000076
2023-02-15T01:02:38.747Z,22.60000038
2023-02-15T01:03:39.198Z,23
2023-02-15T01:04:39.745Z,22.20000076
2023-02-15T01:05:40.103Z,25.60000038
2023-02-15T01:06:40.846Z,23.70000076
2023-02-15T01:07:41.353Z,22.60000038
2023-02-15T01:08:41.820Z,24.29999924
2023-02-15T01:09:42.320Z,22.79999924
2023-02-15T01:10:42.864Z,23.79999924
2023-02-15T01:11:43.298Z,20.70000076
2023-02-15T01:12:43.789Z,22.89999962
2023-02-15T01:13:44.332Z,25.89999962
2023-02-15T01:14:44.782Z,22.10000038
2023-02-15T01:15:45.301Z,26.5
2023-02-15T01:16:45.757Z,21.89999962
2023-02-15T01:17:46.883Z,23
2023-02-15T01:18:47.411Z,23.5
2023-02-15T01:19:48.784Z,22.89999962
2023-02-15T01:20:49.291Z,20.79999924
2023-02-15T01:21:49.687Z,23.70000076
2023-02-15T01:22:50.087Z,20.79999924
2023-02-15T01:23:50.639Z,22.20000076
2023-02-15T01:24:51.143Z,20
2023-02-15T01:25:51.579Z,27
2023-02-15T01:26:52.155Z,22.20000076
2023-02-15T01:27:53.285Z,20.39999962
2023-02-15T01:28:53.832Z,22.89999962
2023-02-15T01:29:54.452Z,20.29999924
2023-02-15T01:30:55.050Z,22
2023-02-15T01:32:26.826Z,21.10000038
2023-02-15T01:33:27.268Z,19.39999962
2023-02-15T01:34:27.730Z,21.89999962
2023-02-15T01:35:28.308Z,22.60000038
2023-02-15T01:36:28.781Z,23.10000038
2023-02-15T01:37:29.289Z,21.39999962
2023-02-15T01:38:30.480Z,23.70000076
2023-02-15T01:39:30.946Z,33.90000153
2023-02-15T01:40:31.494Z,60.5
2023-02-15T01:41:31.943Z,31.60000038
2023-02-15T01:42:32.412Z,22.79999924
2023-02-15T01:43:32.848Z,23.39999962
2023-02-15T01:44:33.274Z,23.20000076
2023-02-15T01:45:33.804Z,19.70000076
2023-02-15T01:46:34.313Z,21
2023-02-15T01:47:35.315Z,20.89999962
2023-02-15T01:48:36.777Z,20.79999924
2023-02-15T01:49:37.180Z,21.60000038
2023-02-15T01:50:37.732Z,19.79999924
2023-02-15T01:51:38.317Z,23.89999962
2023-02-15T01:52:38.760Z,20.20000076
2023-02-15T01:53:39.206Z,21.60000038
2023-02-15T01:54:39.708Z,23.20000076
2023-02-15T01:55:40.854Z,22.20000076
2023-02-15T01:56:41.341Z,20.89999962
2023-02-15T01:57:41.799Z,23.20000076
2023-02-15T01:58:43.007Z,20.20000076
2023-02-15T01:59:43.423Z,22.89999962
2023-02-15T02:00:43.938Z,22.29999924
2023-02-15T02:01:44.426Z,19.60000038
2023-02-15T02:02:44.895Z,20.20000076
2023-02-15T02:03:45.340Z,19
2023-02-15T02:04:45.817Z,21.39999962
2023-02-15T02:05:46.269Z,23.20000076
2023-02-15T02:06:46.825Z,20
2023-02-15T02:07:47.311Z,22.39999962
2023-02-15T02:08:48.491Z,20.79999924
2023-02-15T02:09:49.009Z,22.20000076
2023-02-15T02:10:49.408Z,22.89999962
2023-02-15T02:11:49.936Z,25.60000038
2023-02-15T02:12:50.409Z,19.39999962
2023-02-15T02:13:50.877Z,19.70000076
2023-02-15T02:14:51.329Z,19.39999962
2023-02-15T02:15:51.849Z,21.39999962
2023-02-15T02:16:52.304Z,20
2023-02-15T02:17:53.287Z,19.60000038
2023-02-15T02:18:54.270Z,21
2023-02-15T02:20:25.331Z,21.89999962
2023-02-15T02:21:25.753Z,19.10000038
2023-02-15T02:22:26.354Z,17.60000038
2023-02-15T02:23:26.840Z,17.70000076
2023-02-15T02:24:27.271Z,16.79999924
2023-02-15T02:25:27.809Z,19.20000076
2023-02-15T02:26:28.266Z,19.10000038
2023-02-15T02:27:28.791Z,18.60000038
2023-02-15T02:28:29.791Z,18.89999962
2023-02-15T02:29:30.271Z,20.10000038
2023-02-15T02:30:30.909Z,17.79999924
2023-02-15T02:31:31.296Z,20.70000076
2023-02-15T02:32:31.778Z,20.20000076
2023-02-15T02:33:32.239Z,19.29999924
2023-02-15T02:34:32.731Z,17.89999962
2023-02-15T02:35:33.204Z,20.39999962
2023-02-15T02:36:33.637Z,18.10000038
2023-02-15T02:37:34.153Z,17
2023-02-15T02:38:35.287Z,14.89999962
2023-02-15T02:39:35.695Z,17.79999924
2023-02-15T02:40:36.178Z,16
2023-02-15T02:41:36.610Z,18.29999924
2023-02-15T02:42:37.027Z,16.5
2023-02-15T02:43:37.585Z,19.79999924
2023-02-15T02:44:38.014Z,16.89999962
2023-02-15T02:45:38.555Z,19.60000038
2023-02-15T02:46:39.096Z,18.20000076
2023-02-15T02:47:39.512Z,18.60000038
2023-02-15T02:48:40.787Z,18.60000038
2023-02-15T02:49:41.219Z,20.10000038
2023-02-15T02:50:41.776Z,20
2023-02-15T02:51:42.243Z,17.29999924
2023-02-15T02:52:42.661Z,19
2023-02-15T02:53:43.223Z,17.20000076
2023-02-15T02:54:43.666Z,16.20000076
2023-02-15T02:55:44.128Z,19.70000076
2023-02-15T02:56:44.606Z,21.39999962
2023-02-15T02:57:45.024Z,17.89999962
2023-02-15T02:58:46.318Z,19
2023-02-15T02:59:46.805Z,17.5
2023-02-15T03:00:47.326Z,19
2023-02-15T03:01:47.990Z,18.5
2023-02-15T03:02:48.439Z,17.79999924
2023-02-15T03:03:48.934Z,18.60000038
2023-02-15T03:04:49.371Z,20.20000076
2023-02-15T03:05:49.818Z,18
2023-02-15T03:06:50.307Z,20.60000038
2023-02-15T03:07:50.714Z,18
2023-02-15T03:08:51.843Z,20.29999924
2023-02-15T03:09:52.206Z,19.10000038
2023-02-15T03:10:52.622Z,17.60000038
2023-02-15T03:11:53.152Z,17.39999962
2023-02-15T03:12:53.596Z,18.39999962
2023-02-15T03:14:24.572Z,18.60000038
2023-02-15T03:15:25.043Z,17
2023-02-15T03:16:25.501Z,15.80000019
2023-02-15T03:17:25.926Z,17
2023-02-15T03:18:26.996Z,18.20000076
2023-02-15T03:19:27.452Z,18.5
2023-02-15T03:20:27.915Z,19.89999962
2023-02-15T03:21:28.331Z,18.10000038
2023-02-15T03:22:28.927Z,17.10000038
2023-02-15T03:23:29.292Z,17
2023-02-15T03:24:29.771Z,16.60000038
2023-02-15T03:25:30.298Z,17.10000038
2023-02-15T03:26:30.702Z,18.29999924
2023-02-15T03:27:31.181Z,17
2023-02-15T03:28:31.641Z,17.29999924
2023-02-15T03:29:32.988Z,16.20000076
2023-02-15T03:30:33.511Z,16.39999962
2023-02-15T03:31:34.047Z,16.20000076
2023-02-15T03:32:34.425Z,14.80000019
2023-02-15T03:33:34.851Z,18.20000076
2023-02-15T03:34:35.275Z,14.89999962
2023-02-15T03:35:35.770Z,15
2023-02-15T03:36:36.231Z,15.39999962
2023-02-15T03:37:37.502Z,16
2023-02-15T03:38:38.035Z,16.70000076
2023-02-15T03:39:39.473Z,17.5
2023-02-15T03:40:39.898Z,15
2023-02-15T03:41:40.719Z,16
2023-02-15T03:42:41.191Z,15.5
2023-02-15T03:43:41.588Z,16.70000076
2023-02-15T03:44:42.033Z,16.39999962
2023-02-15T03:45:42.463Z,17.10000038
2023-02-15T03:46:42.922Z,17.20000076
2023-02-15T03:47:43.332Z,16.20000076
2023-02-15T03:48:44.491Z,15.5
2023-02-15T03:49:44.973Z,14.30000019
2023-02-15T03:50:46.006Z,17
2023-02-15T03:51:46.486Z,15.80000019
2023-02-15T03:52:46.972Z,15.19999981
2023-02-15T03:53:47.420Z,14.19999981
2023-02-15T03:54:47.925Z,16.29999924
2023-02-15T03:55:48.355Z,16.60000038
2023-02-15T03:56:48.810Z,16.5
2023-02-15T03:57:49.262Z,16.70000076
2023-02-15T03:58:49.681Z,16.79999924
2023-02-15T03:59:50.972Z,15.89999962
2023-02-15T04:00:51.531Z,16.89999962
2023-02-15T04:01:51.960Z,16.60000038
2023-02-15T04:02:52.494Z,14.5
2023-02-15T04:03:52.831Z,18.20000076
2023-02-15T04:05:23.881Z,17
2023-02-15T04:06:24.415Z,18
2023-02-15T04:07:24.826Z,15.89999962
2023-02-15T04:08:25.308Z,14.5
2023-02-15T04:09:26.770Z,14
2023-02-15T04:10:27.179Z,19.79999924
2023-02-15T04:11:27.737Z,17.5
2023-02-15T04:12:28.172Z,14.30000019
2023-02-15T04:13:28.659Z,16.89999962
2023-02-15T04:14:29.107Z,17.20000076
2023-02-15T04:15:29.530Z,15.10000038
2023-02-15T04:16:31.297Z,15.89999962
2023-02-15T04:17:30.417Z,15.80000019
2023-02-15T04:18:30.932Z,18
2023-02-15T04:19:32.280Z,15.5
2023-02-15T04:20:32.668Z,15.80000019
2023-02-15T04:21:33.182Z,15.39999962
2023-02-15T04:22:33.604Z,18.60000038
2023-02-15T04:23:34.134Z,16.10000038
2023-02-15T04:24:34.587Z,13.69999981
2023-02-15T04:25:35.041Z,12.69999981
2023-02-15T04:26:35.521Z,14.60000038
2023-02-15T04:27:35.979Z,15.30000019
2023-02-15T04:28:36.412Z,13.5
2023-02-15T04:29:37.769Z,14
2023-02-15T04:30:38.204Z,15.80000019
2023-02-15T04:31:38.825Z,14.89999962
2023-02-15T04:32:39.140Z,17.5
2023-02-15T04:33:39.629Z,14.60000038
2023-02-15T04:34:40.113Z,13.60000038
2023-02-15T04:35:40.746Z,14.39999962
2023-02-15T04:36:41.176Z,15.30000019
2023-02-15T04:37:41.592Z,14.5
2023-02-15T04:38:42.150Z,14.5
2023-02-15T04:39:43.466Z,14.10000038
2023-02-15T04:40:44.800Z,12.19999981
2023-02-15T04:41:45.198Z,12.60000038
2023-02-15T04:42:45.626Z,15.80000019
2023-02-15T04:43:46.196Z,13.89999962
2023-02-15T04:44:46.600Z,15.10000038
2023-02-15T04:45:47.120Z,13.60000038
2023-02-15T04:46:47.533Z,14.89999962
2023-02-15T04:47:47.959Z,15.39999962
2023-02-15T04:48:49.083Z,14.5
2023-02-15T04:49:49.470Z,13.19999981
2023-02-15T04:50:49.976Z,14
2023-02-15T04:51:50.453Z,15.89999962
2023-02-15T04:52:50.897Z,13.69999981
2023-02-15T04:53:51.408Z,14.60000038
2023-02-15T04:54:51.857Z,13.5
2023-02-15T04:55:52.269Z,13.89999962
2023-02-15T04:57:23.352Z,14.69999981
2023-02-15T04:58:23.763Z,15.69999981
2023-02-15T04:59:24.335Z,16.79999924
2023-02-15T05:00:25.276Z,12.89999962
2023-02-15T05:01:25.768Z,12.89999962
2023-02-15T05:02:26.129Z,12.19999981
2023-02-15T05:03:26.549Z,16.29999924
2023-02-15T05:04:27.228Z,15.60000038
2023-02-15T05:05:27.524Z,14.39999962
2023-02-15T05:06:28.015Z,15.60000038
2023-02-15T05:07:28.497Z,13.39999962
2023-02-15T05:08:29.094Z,14.30000019
2023-02-15T05:09:30.254Z,14.80000019
2023-02-15T05:10:30.905Z,14.5
2023-02-15T05:11:32.386Z,13.5
2023-02-15T05:12:32.870Z,15.19999981
2023-02-15T05:13:33.347Z,16.20000076
2023-02-15T05:14:33.896Z,15.5
2023-02-15T05:15:34.448Z,15.5
2023-02-15T05:16:34.871Z,14.89999962
2023-02-15T05:17:35.651Z,18.39999962
2023-02-15T05:18:36.773Z,14.80000019
2023-02-15T05:19:37.820Z,16.10000038
2023-02-15T05:20:38.220Z,15.39999962
2023-02-15T05:21:38.617Z,14.60000038
2023-02-15T05:22:39.148Z,16.20000076
2023-02-15T05:23:39.572Z,15.80000019
2023-02-15T05:24:40.055Z,17.29999924
2023-02-15T05:25:40.740Z,13.39999962
2023-02-15T05:26:41.184Z,15.60000038
2023-02-15T05:27:41.728Z,15.5
2023-02-15T05:28:42.158Z,15.5
2023-02-15T05:29:43.351Z,15.10000038
2023-02-15T05:30:44.004Z,16.5
2023-02-15T05:31:44.430Z,17.10000038
2023-02-15T05:32:44.939Z,17.89999962
2023-02-15T05:33:45.210Z,16.39999962
2023-02-15T05:34:45.715Z,14.89999962
2023-02-15T05:35:46.116Z,16.5
2023-02-15T05:36:46.523Z,15.30000019
2023-02-15T05:37:47.000Z,13
2023-02-15T05:38:47.416Z,13.19999981
2023-02-15T05:39:48.786Z,14.19999981
2023-02-15T05:40:50.196Z,14.19999981
2023-02-15T05:41:49.726Z,12.5
2023-02-15T05:42:50.197Z,15.5
2023-02-15T05:43:50.624Z,15.69999981
2023-02-15T05:44:51.134Z,13.5
2023-02-15T05:45:51.584Z,15.19999981
2023-02-15T05:47:22.652Z,14.39999962
2023-02-15T05:48:23.183Z,14.89999962
2023-02-15T05:49:24.453Z,15.5
2023-02-15T05:50:25.513Z,14.10000038
2023-02-15T05:51:25.935Z,16.20000076
2023-02-15T05:52:26.382Z,17.60000038
2023-02-15T05:53:26.818Z,13.89999962
2023-02-15T05:54:27.258Z,15.10000038
2023-02-15T05:55:27.690Z,14.10000038
2023-02-15T05:56:28.124Z,12.89999962
2023-02-15T05:57:28.545Z,13.39999962
2023-02-15T05:58:29.037Z,15
2023-02-15T05:59:29.467Z,14.30000019
2023-02-15T06:00:29.977Z,14.89999962
2023-02-15T06:01:30.447Z,14.19999981
2023-02-15T06:02:30.873Z,13.19999981
2023-02-15T06:03:31.397Z,13.5
2023-02-15T06:04:31.883Z,15.30000019
2023-02-15T06:05:32.318Z,15.39999962
2023-02-15T06:06:32.825Z,14.69999981
2023-02-15T06:07:33.258Z,17.39999962
2023-02-15T06:08:33.685Z,14.89999962
2023-02-15T06:09:34.126Z,15.19999981
2023-02-15T06:10:34.594Z,12.39999962
2023-02-15T06:11:35.072Z,14
2023-02-15T06:12:35.480Z,13.19999981
2023-02-15T06:13:38.597Z,14
2023-02-15T06:14:36.485Z,13.60000038
2023-02-15T06:15:36.999Z,16.5
2023-02-15T06:16:37.415Z,13
2023-02-15T06:17:37.870Z,13.80000019
2023-02-15T06:18:38.294Z,13.30000019
2023-02-15T06:19:39.594Z,15.5
2023-02-15T06:20:40.056Z,12.89999962
2023-02-15T06:21:41.035Z,12.89999962
2023-02-15T06:22:41.448Z,13.5
2023-02-15T06:23:41.935Z,12.5
2023-02-15T06:24:42.381Z,12.80000019
2023-02-15T06:25:42.826Z,13.10000038
2023-02-15T06:26:43.432Z,11.80000019
2023-02-15T06:27:43.882Z,14.19999981
2023-02-15T06:28:44.378Z,12
2023-02-15T06:29:44.832Z,10.5
2023-02-15T06:30:46.047Z,14.89999962
2023-02-15T06:31:46.647Z,13.80000019
2023-02-15T06:32:46.964Z,13.39999962
2023-02-15T06:33:47.496Z,13.10000038
2023-02-15T06:34:48.940Z,13.10000038
2023-02-15T06:35:48.431Z,11.89999962
2023-02-15T06:36:48.905Z,13.30000019
2023-02-15T06:37:49.373Z,16.79999924
2023-02-15T06:38:49.935Z,10.80000019
2023-02-15T06:39:50.461Z,12.69999981
2023-02-15T06:41:22.060Z,15.19999981
2023-02-15T06:42:22.502Z,12.69999981
2023-02-15T06:43:23.014Z,13.19999981
2023-02-15T06:44:23.547Z,12.69999981
2023-02-15T06:45:23.967Z,12.69999981
2023-02-15T06:46:24.598Z,10.60000038
2023-02-15T06:47:24.907Z,12
2023-02-15T06:48:25.373Z,12.69999981
2023-02-15T06:49:25.902Z,15.69999981
2023-02-15T06:50:27.277Z,14.39999962
2023-02-15T06:51:27.814Z,12.69999981
2023-02-15T06:52:28.234Z,10.80000019
2023-02-15T06:53:28.645Z,15.10000038
2023-02-15T06:54:29.174Z,11.5
2023-02-15T06:55:29.620Z,13.5
2023-02-15T06:56:30.157Z,15.5
2023-02-15T06:57:30.607Z,12.39999962
2023-02-15T06:58:31.037Z,12
2023-02-15T06:59:31.580Z,13.10000038
2023-02-15T07:00:32.845Z,13.80000019
2023-02-15T07:01:33.308Z,10.69999981
2023-02-15T07:02:33.961Z,14.39999962
2023-02-15T07:03:34.496Z,15
2023-02-15T07:04:35.016Z,13.80000019
2023-02-15T07:05:35.546Z,13.60000038
2023-02-15T07:06:36.310Z,12.89999962
2023-02-15T07:07:36.854Z,12
2023-02-15T07:08:37.306Z,14.30000019
2023-02-15T07:09:37.761Z,14.69999981
2023-02-15T07:10:39.274Z,13.5
2023-02-15T07:11:39.761Z,12
2023-02-15T07:12:40.289Z,16.20000076
2023-02-15T07:13:41.467Z,13.69999981
2023-02-15T07:14:41.994Z,16.29999924
2023-02-15T07:15:42.577Z,14.39999962
2023-02-15T07:16:43.027Z,13.19999981
2023-02-15T07:17:43.544Z,13.89999962
2023-02-15T07:18:44.154Z,12.80000019
2023-02-15T07:19:45.028Z,11.80000019
2023-02-15T07:20:46.282Z,11.80000019
2023-02-15T07:21:46.795Z,12.89999962
2023-02-15T07:22:47.295Z,13.60000038
2023-02-15T07:23:47.752Z,11.30000019
2023-02-15T07:24:48.261Z,17
2023-02-15T07:25:49.279Z,12.30000019
2023-02-15T07:26:49.786Z,13.69999981
2023-02-15T07:27:50.234Z,13.60000038
2023-02-15T07:28:51.791Z,13.30000019
2023-02-15T07:30:22.592Z,14.10000038
2023-02-15T07:31:23.072Z,11.60000038
2023-02-15T07:32:23.619Z,16.5
2023-02-15T07:33:24.031Z,15.10000038
2023-02-15T07:34:24.789Z,13.69999981
2023-02-15T07:35:25.425Z,13.10000038
2023-02-15T07:36:26.122Z,20.20000076
2023-02-15T07:37:26.683Z,18.70000076
2023-02-15T07:38:27.748Z,18.29999924
2023-02-15T07:39:28.365Z,14.69999981
2023-02-15T07:40:28.892Z,17
2023-02-15T07:41:30.189Z,13.30000019
2023-02-15T07:42:30.757Z,18.79999924
2023-02-15T07:43:32.169Z,15.19999981
2023-02-15T07:44:32.671Z,14.69999981
2023-02-15T07:45:33.128Z,16.5
2023-02-15T07:46:33.742Z,16.29999924
2023-02-15T07:47:34.132Z,12.19999981
2023-02-15T07:48:34.663Z,16.89999962
2023-02-15T07:49:35.114Z,16.70000076
2023-02-15T07:50:36.255Z,19.29999924
2023-02-15T07:51:36.754Z,13.60000038
2023-02-15T07:52:37.783Z,12.80000019
2023-02-15T07:53:38.276Z,14
2023-02-15T07:54:38.710Z,13.69999981
2023-02-15T07:55:39.793Z,15
2023-02-15T07:56:40.251Z,12.69999981
2023-02-15T07:57:40.853Z,13.30000019
2023-02-15T07:58:41.396Z,12.10000038
2023-02-15T07:59:41.873Z,11.80000019
2023-02-15T08:00:42.295Z,11.89999962
2023-02-15T08:01:43.545Z,12.60000038
2023-02-15T08:02:44.113Z,13.5
2023-02-15T08:03:44.668Z,13.60000038
2023-02-15T08:04:45.073Z,11.10000038
2023-02-15T08:05:45.493Z,12.39999962
2023-02-15T08:06:45.973Z,17.89999962
2023-02-15T08:07:46.438Z,12.39999962
2023-02-15T08:08:47.110Z,14.10000038
2023-02-15T08:09:47.597Z,14.39999962
2023-02-15T08:10:48.804Z,12.5
2023-02-15T08:11:49.303Z,13.89999962
2023-02-15T08:12:49.761Z,13.30000019
2023-02-15T08:13:50.796Z,12.89999962
2023-02-15T08:15:21.459Z,14.89999962
2023-02-15T08:16:22.065Z,19.10000038
2023-02-15T08:17:22.640Z,13.5
2023-02-15T08:18:23.090Z,14.19999981
2023-02-15T08:19:23.560Z,14.10000038
2023-02-15T08:20:24.753Z,16.89999962
2023-02-15T08:21:25.815Z,26.89999962
2023-02-15T08:22:26.269Z,39.09999847
2023-02-15T08:23:26.786Z,25.60000038
2023-02-15T08:24:27.463Z,23.70000076
2023-02-15T08:25:28.024Z,16.20000076
2023-02-15T08:26:28.460Z,15.5
2023-02-15T08:27:29.098Z,17.5
2023-02-15T08:28:29.615Z,15.5
2023-02-15T08:29:30.038Z,14.89999962
2023-02-15T08:30:30.702Z,16.39999962
2023-02-15T08:31:31.918Z,16.10000038
2023-02-15T08:32:32.277Z,19.10000038
2023-02-15T08:33:32.751Z,15.89999962
2023-02-15T08:34:33.245Z,17.20000076
2023-02-15T08:35:33.779Z,15.19999981
2023-02-15T08:36:34.197Z,16.5
2023-02-15T08:37:34.671Z,15.19999981
2023-02-15T08:38:35.233Z,13.10000038
2023-02-15T08:39:35.684Z,16.60000038
2023-02-15T08:40:36.228Z,12.5
2023-02-15T08:41:37.465Z,14.19999981
2023-02-15T08:42:37.921Z,13.10000038
2023-02-15T08:43:38.510Z,14.5
2023-02-15T08:44:38.964Z,14.60000038
2023-02-15T08:45:39.550Z,13.69999981
2023-02-15T08:46:39.968Z,15.39999962
2023-02-15T08:47:40.679Z,13.19999981
2023-02-15T08:48:41.141Z,14.19999981
2023-02-15T08:49:41.611Z,15
2023-02-15T08:50:42.108Z,14.39999962
2023-02-15T08:51:43.483Z,12.80000019
2023-02-15T08:52:43.976Z,13
2023-02-15T08:53:44.528Z,13.30000019
2023-02-15T08:54:45.005Z,13.39999962
2023-02-15T08:55:45.444Z,12.10000038
2023-02-15T08:56:46.068Z,11.10000038
2023-02-15T08:57:46.636Z,13.39999962
2023-02-15T08:58:47.273Z,12
2023-02-15T08:59:47.762Z,11.5
2023-02-15T09:00:48.375Z,15.39999962
2023-02-15T09:01:49.701Z,12.60000038
2023-02-15T09:03:20.697Z,11.19999981
2023-02-15T09:04:21.172Z,13.10000038
2023-02-15T09:05:21.783Z,13.5
2023-02-15T09:06:22.224Z,12.69999981
2023-02-15T09:07:22.698Z,9.800000191
2023-02-15T09:08:23.317Z,10.5
2023-02-15T09:09:23.887Z,13
2023-02-15T09:10:24.347Z,11.19999981
2023-02-15T09:11:25.778Z,12.39999962
2023-02-15T09:12:26.285Z,8.800000191
2023-02-15T09:13:26.747Z,12.30000019
2023-02-15T09:14:27.274Z,10.19999981
2023-02-15T09:15:27.783Z,12.60000038
2023-02-15T09:16:28.440Z,9.800000191
2023-02-15T09:17:28.960Z,11.69999981
2023-02-15T09:18:29.394Z,10.30000019
2023-02-15T09:19:29.920Z,9.300000191
2023-02-15T09:20:31.302Z,14.39999962
2023-02-15T09:21:32.783Z,14.80000019
2023-02-15T09:22:33.222Z,11.60000038
2023-02-15T09:23:33.706Z,9.800000191
2023-02-15T09:24:34.227Z,9.199999809
2023-02-15T09:25:34.866Z,11
2023-02-15T09:26:35.398Z,11.30000019
2023-02-15T09:27:35.841Z,9.600000381
2023-02-15T09:28:36.364Z,11.19999981
2023-02-15T09:29:36.887Z,11.30000019
2023-02-15T09:30:37.628Z,30
2023-02-15T09:31:38.789Z,17.60000038
2023-02-15T09:32:39.338Z,14.69999981
2023-02-15T09:33:40.028Z,11.39999962
2023-02-15T09:34:40.690Z,13.89999962
2023-02-15T09:35:41.153Z,12.30000019
2023-02-15T09:36:42.636Z,13.19999981
2023-02-15T09:37:43.145Z,11.19999981
2023-02-15T09:38:43.606Z,13.30000019
2023-02-15T09:39:44.167Z,14.30000019
2023-02-15T09:40:44.772Z,10.60000038
2023-02-15T09:41:45.748Z,10.89999962
2023-02-15T09:42:46.305Z,12.89999962
2023-02-15T09:43:46.768Z,13.5
2023-02-15T09:44:47.773Z,13.60000038
2023-02-15T09:45:48.316Z,10.30000019
2023-02-15T09:46:48.787Z,11.5
2023-02-15T09:48:19.897Z,13.19999981
2023-02-15T09:49:20.367Z,13.39999962
2023-02-15T09:50:21.741Z,13.39999962
2023-02-15T09:51:22.246Z,15.30000019
2023-02-15T09:52:23.763Z,15.10000038
2023-02-15T09:53:24.211Z,15
2023-02-15T09:54:24.676Z,13.89999962
2023-02-15T09:55:25.355Z,17.79999924
2023-02-15T09:56:26.070Z,12.5
2023-02-15T09:57:26.685Z,17.10000038
2023-02-15T09:58:28.330Z,16.89999962
2023-02-15T09:59:28.926Z,15.60000038
2023-02-15T10:00:29.449Z,13.39999962
2023-02-15T10:01:30.137Z,15.80000019
2023-02-15T10:02:31.642Z,14.30000019
2023-02-15T10:03:32.263Z,15.10000038
2023-02-15T10:04:32.872Z,15.5
2023-02-15T10:05:33.391Z,14.60000038
2023-02-15T10:06:33.960Z,14.80000019
2023-02-15T10:07:34.692Z,16.29999924
2023-02-15T10:08:35.120Z,18
2023-02-15T10:09:35.756Z,14.69999981
2023-02-15T10:10:36.322Z,14.19999981
2023-02-15T10:11:36.915Z,15.30000019
2023-02-15T10:12:38.278Z,15
2023-02-15T10:13:38.855Z,12.69999981
2023-02-15T10:14:39.445Z,13.10000038
2023-02-15T10:15:40.018Z,15.10000038
2023-02-15T10:16:41.067Z,12.19999981
2023-02-15T10:17:41.631Z,12.69999981
2023-02-15T10:18:45.022Z,13.69999981
2023-02-15T10:19:45.635Z,13.5
2023-02-15T10:20:46.799Z,12.89999962
2023-02-15T10:21:47.311Z,11
2023-02-15T10:22:48.703Z,11.5
2023-02-15T10:24:19.643Z,15.19999981
2023-02-15T10:25:20.172Z,17.10000038
2023-02-15T10:26:20.722Z,19
2023-02-15T10:27:21.340Z,17
2023-02-15T10:28:22.832Z,12.89999962
2023-02-15T10:29:23.422Z,10.5
2023-02-15T10:30:24.073Z,11.5
2023-02-15T10:31:24.791Z,11.60000038
2023-02-15T10:32:26.293Z,12
2023-02-15T10:33:26.857Z,11.30000019
2023-02-15T10:34:27.459Z,12.19999981
2023-02-15T10:35:27.980Z,13.60000038
2023-02-15T10:36:28.526Z,9.5
2023-02-15T10:37:29.013Z,15.10000038
2023-02-15T10:38:29.598Z,10.89999962
2023-02-15T10:39:30.205Z,9.699999809
2023-02-15T10:40:30.805Z,10.60000038
2023-02-15T10:41:31.410Z,11.39999962
2023-02-15T10:42:32.581Z,10.30000019
2023-02-15T10:43:33.212Z,10.39999962
2023-02-15T10:44:33.757Z,12.30000019
2023-02-15T10:45:35.302Z,10.69999981
2023-02-15T10:46:35.954Z,8.800000191
2023-02-15T10:47:36.445Z,9.800000191
2023-02-15T10:48:37.153Z,12.19999981
2023-02-15T10:49:37.692Z,8.800000191
2023-02-15T10:50:38.241Z,12.5
2023-02-15T10:51:38.740Z,11.5
2023-02-15T10:52:40.069Z,12.19999981
2023-02-15T10:53:40.872Z,12.69999981
2023-02-15T10:54:41.466Z,12.19999981
2023-02-15T10:55:42.633Z,11.19999981
2023-02-15T10:56:43.363Z,9
2023-02-15T10:57:43.892Z,10.89999962
2023-02-15T10:58:45.337Z,12.19999981
2023-02-15T10:59:45.931Z,11.80000019
2023-02-15T11:00:46.544Z,10.89999962
2023-02-15T11:01:47.348Z,8.800000191
2023-02-15T11:03:19.215Z,11
2023-02-15T11:04:19.853Z,10.10000038
2023-02-15T11:05:20.421Z,8
2023-02-15T11:06:20.906Z,10.89999962
2023-02-15T11:07:21.456Z,11.5
2023-02-15T11:08:22.054Z,10.80000019
2023-02-15T11:09:22.675Z,10.19999981
2023-02-15T11:10:23.392Z,8.300000191
2023-02-15T11:11:25.157Z,10
2023-02-15T11:12:26.280Z,17.29999924
2023-02-15T11:13:26.819Z,11.80000019
2023-02-15T11:14:28.156Z,12
2023-02-15T11:15:28.835Z,12.19999981
2023-02-15T11:16:29.395Z,11.80000019
2023-02-15T11:17:29.964Z,10.10000038
2023-02-15T11:18:30.483Z,12.39999962
2023-02-15T11:19:31.094Z,14.10000038
2023-02-15T11:20:31.713Z,11.69999981
2023-02-15T11:21:32.442Z,10.30000019
2023-02-15T11:22:33.802Z,10.80000019
2023-02-15T11:23:34.483Z,8
2023-02-15T11:24:35.012Z,7.599999905
2023-02-15T11:25:35.640Z,9.100000381
2023-02-15T11:26:36.157Z,9.100000381
2023-02-15T11:27:36.789Z,9.899999619
2023-02-15T11:28:37.199Z,8.5
2023-02-15T11:29:37.821Z,6.900000095
2023-02-15T11:30:38.451Z,7.199999809
2023-02-15T11:31:39.086Z,7.300000191
2023-02-15T11:32:41.052Z,13.69999981
2023-02-15T11:33:41.689Z,8.399999619